createdAt,value
2023-11-06T00:00:35.987Z,98964.00
2023-11-06T00:03:38.591Z,98978.94
2023-11-06T00:06:41.599Z,98985.91
2023-11-06T00:09:46.449Z,98999.00
2023-11-06T00:12:50.926Z,98995.72
2023-11-06T00:15:54.534Z,98999.56
2023-11-06T00:18:57.636Z,98995.94
2023-11-06T00:22:00.525Z,99003.88
2023-11-06T00:25:03.685Z,99006.91
2023-11-06T00:28:07.254Z,99014.16
2023-11-06T00:31:11.155Z,99010.22
2023-11-06T00:34:15.856Z,99017.84
2023-11-06T00:37:18.719Z,99026.47
2023-11-06T00:40:21.376Z,99033.09
2023-11-06T00:43:24.450Z,99037.25
2023-11-06T00:46:27.273Z,99042.22
2023-11-06T00:49:30.232Z,99055.66
2023-11-06T00:52:32.832Z,99043.06
2023-11-06T00:55:38.004Z,99051.03
2023-11-06T00:58:40.861Z,99077.91
2023-11-06T01:01:45.153Z,99090.16
2023-11-06T01:04:48.260Z,99087.06
2023-11-06T01:07:52.295Z,99088.19
2023-11-06T01:10:55.525Z,99088.69
2023-11-06T01:13:58.425Z,99093.50
2023-11-06T01:17:01.373Z,99098.50
2023-11-06T01:20:05.499Z,99113.25
2023-11-06T01:23:08.581Z,99116.06
2023-11-06T01:26:11.310Z,99132.94
2023-11-06T01:29:14.333Z,99141.25
2023-11-06T01:32:21.498Z,99142.28
2023-11-06T01:35:26.869Z,99144.59
2023-11-06T01:38:29.521Z,99161.22
2023-11-06T01:41:32.540Z,99143.97
2023-11-06T01:44:35.404Z,99149.13
2023-11-06T01:47:38.389Z,99157.94
2023-11-06T01:50:42.157Z,99170.22
2023-11-06T01:53:45.155Z,99178.03
2023-11-06T01:56:48.138Z,99182.94
2023-11-06T01:59:51.221Z,99175.50
2023-11-06T02:02:54.375Z,99197.28
2023-11-06T02:05:57.432Z,99200.78
2023-11-06T02:09:00.120Z,99204.56
2023-11-06T02:12:02.988Z,99217.97
2023-11-06T02:15:06.790Z,99209.34
2023-11-06T02:18:10.867Z,99207.31
2023-11-06T02:21:13.808Z,99205.34
2023-11-06T02:24:16.501Z,99195.28
2023-11-06T02:27:19.239Z,99215.38
2023-11-06T02:30:22.306Z,99214.72
2023-11-06T02:33:25.038Z,99220.03
2023-11-06T02:36:27.920Z,99231.00
2023-11-06T02:39:30.797Z,99230.97
2023-11-06T02:42:37.843Z,99233.31
2023-11-06T02:45:40.819Z,99235.59
2023-11-06T02:48:43.908Z,99252.19
2023-11-06T02:51:46.606Z,99273.13
2023-11-06T02:54:49.392Z,99275.75
2023-11-06T02:57:52.724Z,99289.72
2023-11-06T03:00:55.595Z,99288.75
2023-11-06T03:04:00.035Z,99289.72
2023-11-06T03:07:02.943Z,99277.44
2023-11-06T03:10:08.076Z,99287.53
2023-11-06T03:13:11.450Z,99280.09
2023-11-06T03:16:15.383Z,99278.25
2023-11-06T03:19:18.276Z,99281.91
2023-11-06T03:22:20.900Z,99276.78
2023-11-06T03:25:23.955Z,99288.75
2023-11-06T03:28:26.926Z,99279.13
2023-11-06T03:31:29.986Z,99289.44
2023-11-06T03:34:32.900Z,99265.84
2023-11-06T03:37:35.881Z,99282.31
2023-11-06T03:40:38.757Z,99293.13
2023-11-06T03:43:43.009Z,99287.78
2023-11-06T03:46:45.672Z,99283.47
2023-11-06T03:49:48.317Z,99290.81
2023-11-06T03:52:53.651Z,99297.78
2023-11-06T03:55:56.270Z,99305.06
2023-11-06T03:58:59.718Z,99313.38
2023-11-06T04:02:03.969Z,99336.00
2023-11-06T04:05:07.684Z,99345.16
2023-11-06T04:08:11.165Z,99349.63
2023-11-06T04:11:13.897Z,99354.44
2023-11-06T04:14:16.639Z,99349.28
2023-11-06T04:17:19.273Z,99360.59
2023-11-06T04:20:21.973Z,99364.59
2023-11-06T04:23:25.399Z,99367.25
2023-11-06T04:26:29.255Z,99383.22
2023-11-06T04:29:31.841Z,99392.50
2023-11-06T04:32:35.457Z,99401.44
2023-11-06T04:35:38.510Z,99401.41
2023-11-06T04:38:41.377Z,99409.38
2023-11-06T04:41:44.043Z,99416.22
2023-11-06T04:44:47.551Z,99416.06
2023-11-06T04:47:50.500Z,99435.31
2023-11-06T04:50:53.866Z,99441.47
2023-11-06T04:53:57.576Z,99447.59
2023-11-06T04:57:00.583Z,99440.31
2023-11-06T05:00:05.513Z,99458.28
2023-11-06T05:03:09.023Z,99455.63
2023-11-06T05:06:11.952Z,99461.94
2023-11-06T05:09:14.746Z,99466.28
2023-11-06T05:12:17.835Z,99473.94
2023-11-06T05:15:20.741Z,99482.28
2023-11-06T05:18:24.315Z,99476.44
2023-11-06T05:21:27.423Z,99485.38
2023-11-06T05:24:31.211Z,99479.59
2023-11-06T05:27:34.339Z,99499.59
2023-11-06T05:30:37.132Z,99488.44
2023-11-06T05:33:40.718Z,99485.78
2023-11-06T05:36:44.098Z,99485.91
2023-11-06T05:39:47.259Z,99503.22
2023-11-06T05:42:52.380Z,99513.56
2023-11-06T05:45:58.046Z,99517.41
2023-11-06T05:49:00.923Z,99529.38
2023-11-06T05:52:06.098Z,99536.19
2023-11-06T05:55:10.075Z,99545.84
2023-11-06T05:58:13.061Z,99533.72
2023-11-06T06:01:15.853Z,99541.84
2023-11-06T06:04:18.748Z,99547.50
2023-11-06T06:07:21.625Z,99540.53
2023-11-06T06:10:24.402Z,99542.84
2023-11-06T06:13:27.982Z,99555.81
2023-11-06T06:16:31.156Z,99545.13
2023-11-06T06:19:34.027Z,99561.81
2023-11-06T06:22:37.047Z,99568.78
2023-11-06T06:25:39.775Z,99580.75
2023-11-06T06:28:42.335Z,99574.78
2023-11-06T06:31:45.252Z,99578.63
2023-11-06T06:34:48.081Z,99583.25
2023-11-06T06:37:50.914Z,99587.72
2023-11-06T06:40:53.786Z,99603.06
2023-11-06T06:43:56.759Z,99599.09
2023-11-06T06:47:00.105Z,99604.09
2023-11-06T06:50:05.109Z,99608.78
2023-11-06T06:53:09.129Z,99610.78
2023-11-06T06:56:12.200Z,99614.16
2023-11-06T06:59:15.190Z,99612.16
2023-11-06T07:02:18.434Z,99628.00
2023-11-06T07:05:21.406Z,99639.59
2023-11-06T07:08:25.504Z,99638.75
2023-11-06T07:11:28.569Z,99649.00
2023-11-06T07:14:33.140Z,99654.94
2023-11-06T07:17:36.290Z,99661.88
2023-11-06T07:20:39.133Z,99656.41
2023-11-06T07:23:42.032Z,99664.47
2023-11-06T07:26:44.854Z,99674.31
2023-11-06T07:29:47.864Z,99682.88
2023-11-06T07:32:51.335Z,99682.66
2023-11-06T07:35:54.351Z,99682.50
2023-11-06T07:38:57.175Z,99705.41
2023-11-06T07:41:59.797Z,99707.94
2023-11-06T07:45:02.933Z,99724.72
2023-11-06T07:48:07.374Z,99733.56
2023-11-06T07:51:10.571Z,99726.72
2023-11-06T07:54:13.140Z,99725.03
2023-11-06T07:57:16.072Z,99729.00
2023-11-06T08:00:18.915Z,99722.88
2023-11-06T08:03:22.053Z,99729.03
2023-11-06T08:06:25.200Z,99728.19
2023-11-06T08:09:29.372Z,99732.88
2023-11-06T08:12:32.027Z,99731.00
2023-11-06T08:15:35.285Z,99749.00
2023-11-06T08:18:38.048Z,99751.19
2023-11-06T08:21:40.981Z,99760.03
2023-11-06T08:24:43.866Z,99769.16
2023-11-06T08:27:46.832Z,99754.06
2023-11-06T08:30:51.724Z,99755.53
2023-11-06T08:33:54.553Z,99766.75
2023-11-06T08:36:57.331Z,99771.94
2023-11-06T08:40:02.235Z,99776.50
2023-11-06T08:43:05.446Z,99777.94
2023-11-06T08:46:08.898Z,99770.88
2023-11-06T08:49:16.524Z,99783.75
2023-11-06T08:52:21.831Z,99777.38
2023-11-06T08:55:24.975Z,99783.81
2023-11-06T08:58:27.514Z,99780.16
2023-11-06T09:01:30.371Z,99777.22
2023-11-06T09:04:34.268Z,99780.84
2023-11-06T09:07:37.292Z,99783.91
2023-11-06T09:10:40.306Z,99775.03
2023-11-06T09:13:42.872Z,99791.91
2023-11-06T09:16:45.466Z,99795.38
2023-11-06T09:19:48.701Z,99793.00
2023-11-06T09:22:51.609Z,99798.50
2023-11-06T09:25:56.262Z,99805.78
2023-11-06T09:29:01.280Z,99813.28
2023-11-06T09:32:04.459Z,99804.97
2023-11-06T09:35:08.012Z,99819.06
2023-11-06T09:38:12.257Z,99837.44
2023-11-06T09:41:15.306Z,99827.31
2023-11-06T09:44:19.639Z,99807.66
2023-11-06T09:47:22.877Z,99817.59
2023-11-06T09:50:26.220Z,99818.19
2023-11-06T09:53:29.856Z,99813.38
2023-11-06T09:56:34.445Z,99820.25
2023-11-06T09:59:38.056Z,99823.97
2023-11-06T10:02:41.239Z,99844.03
2023-11-06T10:05:44.825Z,99854.19
2023-11-06T10:08:47.625Z,99856.63
2023-11-06T10:11:51.588Z,99867.94
2023-11-06T10:14:54.209Z,99874.75
2023-11-06T10:18:13.239Z,99874.72
2023-11-06T10:21:30.211Z,99862.38
2023-11-06T10:24:49.381Z,99858.09
2023-11-06T10:27:52.786Z,99856.50
2023-11-06T10:30:55.724Z,99844.81
2023-11-06T10:33:59.472Z,99833.56
2023-11-06T10:37:11.023Z,99835.63
2023-11-06T10:40:16.026Z,99837.94
2023-11-06T10:43:19.562Z,99837.03
2023-11-06T10:46:23.474Z,99848.72
2023-11-06T10:49:35.078Z,99840.41
2023-11-06T10:52:42.235Z,99863.25
2023-11-06T10:55:47.078Z,99877.53
2023-11-06T10:58:51.048Z,99884.06
2023-11-06T11:01:59.742Z,99877.78
2023-11-06T11:05:04.809Z,99894.25
2023-11-06T11:08:10.632Z,99890.63
2023-11-06T11:11:13.700Z,99892.16
2023-11-06T11:14:17.241Z,99868.69
2023-11-06T11:17:20.379Z,99879.03
2023-11-06T11:20:23.105Z,99870.22
2023-11-06T11:23:47.441Z,99874.72
2023-11-06T11:27:13.306Z,99850.81
2023-11-06T11:30:16.305Z,99855.25
2023-11-06T11:33:56.540Z,99850.22
2023-11-06T11:36:59.703Z,99851.56
2023-11-06T11:40:04.549Z,99845.47
2023-11-06T11:43:37.495Z,99848.03
2023-11-06T11:46:41.410Z,99854.13
2023-11-06T11:49:48.885Z,99846.28
2023-11-06T11:52:51.989Z,99854.81
2023-11-06T11:55:55.000Z,99846.97
2023-11-06T11:58:58.084Z,99840.72
2023-11-06T12:02:01.668Z,99839.66
2023-11-06T12:05:16.377Z,99841.81
2023-11-06T12:08:24.128Z,99843.06
2023-11-06T12:11:30.963Z,99853.09
2023-11-06T12:14:38.669Z,99847.72
2023-11-06T12:17:41.819Z,99850.50
2023-11-06T12:20:47.484Z,99855.56
2023-11-06T12:23:51.031Z,99877.13
2023-11-06T12:26:55.145Z,99896.16
2023-11-06T12:30:09.670Z,99925.56
2023-11-06T12:33:18.581Z,99934.06
2023-11-06T12:36:33.606Z,99861.13
2023-11-06T12:39:38.623Z,99866.41
2023-11-06T12:42:42.885Z,99871.69
2023-11-06T12:45:46.384Z,99894.97
2023-11-06T12:48:53.274Z,99878.78
2023-11-06T12:51:58.409Z,99869.03
2023-11-06T12:55:01.008Z,99866.78
2023-11-06T12:58:10.856Z,99864.44
2023-11-06T13:01:29.193Z,99851.44
2023-11-06T13:04:37.437Z,99856.94
2023-11-06T13:07:45.443Z,99850.03
2023-11-06T13:10:49.431Z,99870.59
2023-11-06T13:13:52.400Z,99872.28
2023-11-06T13:16:56.615Z,99878.13
2023-11-06T13:20:00.237Z,99883.31
2023-11-06T13:23:03.339Z,99885.84
2023-11-06T13:26:06.080Z,99874.75
2023-11-06T13:29:12.853Z,99870.38
2023-11-06T13:32:15.894Z,99870.91
2023-11-06T13:35:19.699Z,99875.31
2023-11-06T13:38:22.996Z,99874.06
2023-11-06T13:41:25.768Z,99879.22
2023-11-06T13:44:30.181Z,99887.41
2023-11-06T13:47:32.837Z,99885.44
2023-11-06T13:50:51.735Z,99880.13
2023-11-06T13:54:00.875Z,99888.41
2023-11-06T13:57:05.338Z,99890.69
2023-11-06T14:00:27.374Z,99894.69
2023-11-06T14:03:30.283Z,99909.00
2023-11-06T14:06:35.092Z,99908.28
2023-11-06T14:09:47.909Z,99923.31
2023-11-06T14:12:51.074Z,99926.34
2023-11-06T14:15:55.463Z,99925.59
2023-11-06T14:18:59.191Z,99935.13
2023-11-06T14:22:07.367Z,99933.03
2023-11-06T14:25:10.490Z,99944.72
2023-11-06T14:28:16.053Z,99930.47
2023-11-06T14:31:20.125Z,99933.72
2023-11-06T14:34:23.377Z,99935.44
2023-11-06T14:37:26.565Z,99945.13
2023-11-06T14:40:29.301Z,99944.63
2023-11-06T14:43:33.045Z,99952.06
2023-11-06T14:46:35.706Z,99950.56
2023-11-06T14:49:38.888Z,99949.19
2023-11-06T14:52:42.389Z,99952.63
2023-11-06T14:55:45.150Z,99965.53
2023-11-06T14:58:47.833Z,99955.84
2023-11-06T15:01:51.911Z,99957.97
2023-11-06T15:04:55.939Z,99954.25
2023-11-06T15:07:58.775Z,99958.56
2023-11-06T15:11:04.360Z,99973.06
2023-11-06T15:14:07.625Z,99959.34
2023-11-06T15:17:10.361Z,99957.78
2023-11-06T15:20:15.858Z,99961.91
2023-11-06T15:23:18.457Z,99976.34
2023-11-06T15:26:21.128Z,99978.72
2023-11-06T15:29:24.085Z,99985.97
2023-11-06T15:32:27.314Z,99982.16
2023-11-06T15:35:31.029Z,99987.03
2023-11-06T15:38:34.346Z,100003.31
2023-11-06T15:41:37.028Z,99987.66
2023-11-06T15:44:41.130Z,99992.66
2023-11-06T15:47:43.929Z,99990.16
2023-11-06T15:50:46.978Z,100001.41
2023-11-06T15:53:49.791Z,100004.31
2023-11-06T15:56:52.815Z,100006.53
2023-11-06T15:59:55.452Z,100004.69
2023-11-06T16:02:58.046Z,100018.31
2023-11-06T16:06:03.227Z,100019.97
2023-11-06T16:09:06.380Z,100024.66
2023-11-06T16:12:09.873Z,100033.34
2023-11-06T16:15:12.681Z,100030.81
2023-11-06T16:18:17.000Z,100034.03
2023-11-06T16:21:19.732Z,100039.72
2023-11-06T16:24:23.701Z,100041.03
2023-11-06T16:27:26.829Z,100043.75
2023-11-06T16:30:29.610Z,100050.44
2023-11-06T16:33:33.597Z,100045.72
2023-11-06T16:36:44.772Z,100050.78
2023-11-06T16:39:47.677Z,100048.09
2023-11-06T16:43:10.569Z,100055.44
2023-11-06T16:46:16.377Z,100047.78
2023-11-06T16:49:20.721Z,100061.94
2023-11-06T16:52:24.255Z,100068.75
2023-11-06T16:55:27.271Z,100066.53
2023-11-06T16:58:29.835Z,100064.00
2023-11-06T17:01:32.826Z,100071.41
2023-11-06T17:04:36.139Z,100072.63
2023-11-06T17:07:39.320Z,100078.38
2023-11-06T17:10:42.375Z,100076.03
2023-11-06T17:13:47.215Z,100082.34
2023-11-06T17:16:49.848Z,100081.63
2023-11-06T17:19:52.967Z,100080.28
2023-11-06T17:22:55.683Z,100087.22
2023-11-06T17:25:58.777Z,100093.28
2023-11-06T17:29:01.827Z,100090.13
2023-11-06T17:32:06.070Z,100091.09
2023-11-06T17:35:10.444Z,100097.53
2023-11-06T17:38:13.732Z,100098.75
2023-11-06T17:41:17.183Z,100099.56
2023-11-06T17:44:20.414Z,100089.22
2023-11-06T17:47:23.701Z,100095.94
2023-11-06T17:50:28.125Z,100097.06
2023-11-06T17:53:31.662Z,100105.53
2023-11-06T17:56:35.061Z,100112.88
2023-11-06T17:59:41.645Z,100113.84
2023-11-06T18:02:45.266Z,100101.16
2023-11-06T18:05:48.676Z,100106.72
2023-11-06T18:08:52.388Z,100116.66
2023-11-06T18:11:57.335Z,100113.63
2023-11-06T18:15:01.151Z,100116.97
2023-11-06T18:18:04.970Z,100117.81
2023-11-06T18:21:09.785Z,100122.38
2023-11-06T18:24:14.275Z,100126.59
2023-11-06T18:27:18.555Z,100128.56
2023-11-06T18:30:22.051Z,100123.22
2023-11-06T18:33:26.050Z,100130.88
2023-11-06T18:36:30.128Z,100134.94
2023-11-06T18:39:33.754Z,100143.88
2023-11-06T18:42:37.697Z,100133.97
2023-11-06T18:45:42.340Z,100142.97
2023-11-06T18:48:46.312Z,100142.50
2023-11-06T18:51:50.308Z,100146.47
2023-11-06T18:54:55.119Z,100150.56
2023-11-06T18:57:58.388Z,100152.25
2023-11-06T19:01:01.444Z,100153.22
2023-11-06T19:04:06.228Z,100156.75
2023-11-06T19:07:09.759Z,100167.94
2023-11-06T19:10:13.399Z,100170.06
2023-11-06T19:13:17.201Z,100173.56
2023-11-06T19:16:23.129Z,100171.16
2023-11-06T19:19:26.527Z,100186.84
2023-11-06T19:22:30.145Z,100189.13
2023-11-06T19:25:33.692Z,100183.97
2023-11-06T19:28:39.412Z,100195.63
2023-11-06T19:31:46.599Z,100186.53
2023-11-06T19:34:50.413Z,100191.09
2023-11-06T19:37:54.661Z,100183.03
2023-11-06T19:41:02.000Z,100186.16
2023-11-06T19:44:09.911Z,100183.72
2023-11-06T19:47:17.042Z,100191.41
2023-11-06T19:50:21.191Z,100189.25
2023-11-06T19:53:25.171Z,100193.28
2023-11-06T19:56:28.845Z,100193.72
2023-11-06T19:59:46.140Z,100191.78
2023-11-06T20:02:57.350Z,100188.00
2023-11-06T20:06:01.417Z,100189.44
2023-11-06T20:09:05.429Z,100189.88
2023-11-06T20:12:10.058Z,100201.59
2023-11-06T20:15:14.281Z,100199.78
2023-11-06T20:18:18.615Z,100200.53
2023-11-06T20:21:23.976Z,100200.38
2023-11-06T20:24:28.333Z,100193.75
2023-11-06T20:27:32.177Z,100198.13
2023-11-06T20:30:35.922Z,100195.59
2023-11-06T20:33:40.066Z,100197.72
2023-11-06T20:36:46.560Z,100196.63
2023-11-06T20:39:51.498Z,100190.09
2023-11-06T20:42:55.143Z,100192.31
2023-11-06T20:45:58.805Z,100185.72
2023-11-06T20:49:02.037Z,100182.41
2023-11-06T20:52:05.585Z,100190.31
2023-11-06T20:55:10.266Z,100178.38
2023-11-06T20:58:13.412Z,100187.00
2023-11-06T21:01:16.516Z,100190.31
2023-11-06T21:04:19.791Z,100183.22
2023-11-06T21:07:23.211Z,100190.22
2023-11-06T21:10:26.313Z,100181.25
2023-11-06T21:13:29.423Z,100202.28
2023-11-06T21:16:35.391Z,100199.53
2023-11-06T21:19:38.860Z,100201.16
2023-11-06T21:22:42.331Z,100202.06
2023-11-06T21:25:45.062Z,100205.81
2023-11-06T21:28:49.185Z,100200.38
2023-11-06T21:31:54.871Z,100209.78
2023-11-06T21:34:59.051Z,100198.00
2023-11-06T21:38:02.132Z,100188.06
2023-11-06T21:41:06.930Z,100188.06
2023-11-06T21:44:11.216Z,100203.31
2023-11-06T21:47:14.805Z,100201.22
2023-11-06T21:50:17.976Z,100205.88
2023-11-06T21:53:21.202Z,100201.00
2023-11-06T21:56:25.221Z,100200.72
2023-11-06T21:59:29.566Z,100207.56
2023-11-06T22:02:32.511Z,100212.75
2023-11-06T22:05:35.595Z,100219.63
2023-11-06T22:08:39.014Z,100205.34
2023-11-06T22:11:43.373Z,100206.34
2023-11-06T22:14:46.454Z,100205.50
2023-11-06T22:17:49.966Z,100192.78
2023-11-06T22:20:53.157Z,100207.56
2023-11-06T22:23:56.122Z,100205.22
2023-11-06T22:26:59.033Z,100215.28
2023-11-06T22:30:02.235Z,100214.59
2023-11-06T22:33:05.933Z,100216.13
2023-11-06T22:36:09.307Z,100216.97
2023-11-06T22:39:12.173Z,100234.44
2023-11-06T22:42:14.875Z,100233.31
2023-11-06T22:45:19.250Z,100231.66
2023-11-06T22:48:22.033Z,100228.97
2023-11-06T22:51:25.138Z,100231.50
2023-11-06T22:54:28.455Z,100221.00
2023-11-06T22:57:31.393Z,100229.69
2023-11-06T23:00:37.241Z,100237.38
2023-11-06T23:03:40.238Z,100232.63
2023-11-06T23:06:43.378Z,100240.88
2023-11-06T23:09:45.977Z,100246.31
2023-11-06T23:12:50.766Z,100247.84
2023-11-06T23:15:53.876Z,100251.59
2023-11-06T23:18:56.805Z,100246.28
2023-11-06T23:21:59.492Z,100247.97
2023-11-06T23:25:02.390Z,100251.06
2023-11-06T23:28:05.535Z,100265.63
2023-11-06T23:31:08.505Z,100253.59
2023-11-06T23:34:14.962Z,100269.53
2023-11-06T23:37:18.061Z,100270.91
2023-11-06T23:40:20.923Z,100265.88
2023-11-06T23:43:23.758Z,100266.88
2023-11-06T23:46:26.914Z,100265.44
2023-11-06T23:49:30.095Z,100278.59
2023-11-06T23:52:33.875Z,100277.34
2023-11-06T23:55:36.814Z,100285.13
2023-11-06T23:58:39.712Z,100275.06
